< < Back
Terminal Aerodrome Forecast


Current Version              Previous Versions:   1  2  3  4  5  6  7  8  9  

Terminal Aerodrome Forecast

018
FTUS42 KJAX 262326
TAFSSI
TAF
KSSI 262326Z 2700/2724 17007KT P6SM VCTS BKN040CB
      TEMPO 2700/2702 VRB15G25KT 3SM TSRA OVC040CB
     FM270200 17006KT P6SM SCT250
     FM270900 24005KT P6SM SKC
     FM271400 25006KT P6SM SCT030
     FM271700 16009KT P6SM SCT040=



Latest METAR

560
SAUS70 KWBC 271100 RRI
MTRSSI
METAR KSSI 271053Z AUTO 00000KT 10SM CLR 26/23 A3007 RMK AO2 SLP184
T02560233


USA.gov is the U.S. government's official web portal to all federal, state and local government web resources and services.